createdAt,value
2019-02-22T00:02:22.634Z,25.91
2019-02-22T00:04:52.154Z,25.68
2019-02-22T00:07:21.645Z,25.86
2019-02-22T00:09:51.217Z,25.86
2019-02-22T00:12:20.812Z,25.86
2019-02-22T00:14:50.371Z,25.84
2019-02-22T00:17:19.871Z,25.85
2019-02-22T00:19:49.429Z,25.86
2019-02-22T00:22:19.015Z,25.84
2019-02-22T00:24:49.606Z,25.84
2019-02-22T00:27:19.085Z,25.84
2019-02-22T00:29:48.582Z,25.84
2019-02-22T00:32:18.115Z,25.87
2019-02-22T00:34:47.656Z,25.89
2019-02-22T00:37:17.169Z,25.94
2019-02-22T00:39:46.786Z,25.96
2019-02-22T00:42:17.792Z,26.01
2019-02-22T00:44:47.297Z,26.03
2019-02-22T00:47:16.823Z,26.07
2019-02-22T00:49:47.329Z,26.08
2019-02-22T00:52:16.785Z,26.09
2019-02-22T00:54:46.282Z,26.10
2019-02-22T00:57:17.211Z,26.12
2019-02-22T00:59:46.711Z,26.13
2019-02-22T01:02:16.592Z,26.15
2019-02-22T01:04:46.154Z,26.16
2019-02-22T01:07:15.691Z,26.16
2019-02-22T01:09:45.200Z,26.16
2019-02-22T01:12:14.837Z,26.09
2019-02-22T01:14:44.428Z,25.95
2019-02-22T01:17:13.924Z,25.81
2019-02-22T01:19:43.486Z,25.68
2019-02-22T01:22:13.049Z,25.65
2019-02-22T01:24:42.546Z,25.70
2019-02-22T01:27:12.090Z,25.76
2019-02-22T01:29:41.617Z,25.84
2019-02-22T01:32:11.186Z,25.88
2019-02-22T01:34:41.226Z,25.94
2019-02-22T01:37:10.742Z,25.98
2019-02-22T01:39:40.341Z,26.01
2019-02-22T01:42:09.908Z,26.04
2019-02-22T01:44:39.389Z,26.06
2019-02-22T01:47:08.927Z,26.07
2019-02-22T01:49:38.431Z,26.07
2019-02-22T01:52:08.028Z,26.06
2019-02-22T01:54:37.545Z,26.06
2019-02-22T01:57:07.068Z,26.07
2019-02-22T01:59:36.625Z,26.07
2019-02-22T02:02:06.404Z,26.10
2019-02-22T02:04:35.949Z,25.92
2019-02-22T02:07:05.998Z,26.13
2019-02-22T02:09:35.649Z,26.14
2019-02-22T02:12:05.401Z,26.16
2019-02-22T02:14:34.884Z,26.18
2019-02-22T02:17:04.469Z,26.19
2019-02-22T02:19:33.977Z,26.19
2019-02-22T02:22:04.175Z,26.20
2019-02-22T02:24:33.679Z,26.20
2019-02-22T02:27:03.357Z,26.20
2019-02-22T02:29:32.962Z,26.19
2019-02-22T02:32:02.516Z,26.18
2019-02-22T02:34:32.011Z,26.18
2019-02-22T02:37:01.560Z,26.18
2019-02-22T02:39:31.060Z,26.18
2019-02-22T02:42:00.601Z,26.18
2019-02-22T02:44:30.320Z,26.17
2019-02-22T02:46:59.946Z,26.14
2019-02-22T02:49:29.435Z,26.11
2019-02-22T02:51:59.016Z,26.11
2019-02-22T02:54:28.479Z,26.07
2019-02-22T02:56:59.155Z,26.06
2019-02-22T02:59:28.661Z,26.04
2019-02-22T03:01:58.451Z,26.04
2019-02-22T03:04:28.005Z,26.04
2019-02-22T03:07:05.242Z,26.03
2019-02-22T03:09:34.777Z,26.04
2019-02-22T03:12:07.342Z,26.04
2019-02-22T03:14:36.808Z,26.04
2019-02-22T03:17:06.621Z,26.04
2019-02-22T03:19:36.150Z,26.04
2019-02-22T03:22:06.891Z,26.03
2019-02-22T03:24:36.622Z,26.03
2019-02-22T03:27:06.097Z,26.02
2019-02-22T03:29:35.643Z,26.02
2019-02-22T03:32:05.139Z,26.03
2019-02-22T03:34:34.680Z,26.04
2019-02-22T03:37:04.138Z,26.05
2019-02-22T03:39:33.665Z,26.06
2019-02-22T03:42:03.273Z,26.07
2019-02-22T03:44:32.830Z,26.08
2019-02-22T03:47:02.345Z,26.10
2019-02-22T03:49:31.871Z,26.11
2019-02-22T03:52:23.114Z,26.12
2019-02-22T03:54:52.616Z,26.12
2019-02-22T03:57:22.314Z,26.12
2019-02-22T03:59:51.870Z,26.09
2019-02-22T04:02:21.291Z,26.07
2019-02-22T04:04:50.736Z,26.07
2019-02-22T04:07:20.260Z,26.06
2019-02-22T04:09:50.645Z,26.04
2019-02-22T04:12:20.140Z,26.04
2019-02-22T04:14:49.726Z,26.04
2019-02-22T04:17:19.200Z,26.03
2019-02-22T04:19:48.769Z,26.02
2019-02-22T04:22:18.251Z,26.00
2019-02-22T04:24:47.720Z,26.01
2019-02-22T04:27:17.202Z,26.01
2019-02-22T04:29:46.660Z,26.00
2019-02-22T04:32:16.122Z,25.99
2019-02-22T04:34:45.613Z,25.99
2019-02-22T04:37:15.122Z,26.00
2019-02-22T04:39:44.564Z,25.98
2019-02-22T04:42:14.274Z,25.96
2019-02-22T04:44:43.694Z,25.96
2019-02-22T04:47:13.172Z,25.96
2019-02-22T04:49:42.673Z,25.97
2019-02-22T04:52:15.061Z,26.00
2019-02-22T04:54:44.542Z,26.00
2019-02-22T04:57:14.035Z,26.01
2019-02-22T04:59:43.481Z,26.03
2019-02-22T05:02:12.986Z,26.05
2019-02-22T05:04:42.511Z,26.07
2019-02-22T05:07:12.074Z,26.09
2019-02-22T05:09:41.567Z,26.11
2019-02-22T05:12:11.447Z,26.13
2019-02-22T05:14:41.111Z,26.16
2019-02-22T05:17:10.697Z,26.16
2019-02-22T05:19:40.221Z,26.19
2019-02-22T05:22:09.815Z,26.20
2019-02-22T05:24:41.614Z,26.22
2019-02-22T05:27:11.155Z,26.23
2019-02-22T05:29:41.885Z,26.25
2019-02-22T05:32:12.576Z,26.24
2019-02-22T05:34:42.252Z,26.25
2019-02-22T05:37:11.893Z,26.27
2019-02-22T05:39:41.421Z,26.27
2019-02-22T05:42:22.252Z,26.27
2019-02-22T05:44:44.287Z,26.26
2019-02-22T05:47:13.761Z,26.24
2019-02-22T05:49:43.297Z,26.23
2019-02-22T05:52:12.778Z,26.26
2019-02-22T05:54:42.364Z,26.27
2019-02-22T05:57:14.186Z,26.28
2019-02-22T05:59:43.237Z,26.29
2019-02-22T06:02:14.525Z,26.30
2019-02-22T06:04:43.993Z,26.32
2019-02-22T06:07:14.758Z,26.34
2019-02-22T06:09:44.299Z,26.36
2019-02-22T06:12:13.778Z,26.36
2019-02-22T06:14:43.375Z,26.37
2019-02-22T06:17:14.749Z,26.38
2019-02-22T06:19:44.111Z,26.41
2019-02-22T06:22:13.595Z,26.42
2019-02-22T06:24:43.099Z,26.43
2019-02-22T06:27:15.447Z,26.42
2019-02-22T06:29:44.956Z,26.43
2019-02-22T06:32:14.466Z,26.44
2019-02-22T06:34:44.124Z,26.45
2019-02-22T06:37:13.747Z,26.47
2019-02-22T06:39:44.700Z,26.49
2019-02-22T06:42:14.204Z,26.51
2019-02-22T06:44:43.710Z,26.52
2019-02-22T06:47:13.197Z,26.54
2019-02-22T06:49:44.519Z,26.56
2019-02-22T06:52:15.086Z,26.58
2019-02-22T06:54:44.552Z,26.59
2019-02-22T06:57:14.047Z,26.60
2019-02-22T06:59:43.537Z,26.61
2019-02-22T07:02:13.213Z,26.61
2019-02-22T07:04:42.814Z,26.64
2019-02-22T07:07:12.384Z,26.64
2019-02-22T07:09:42.074Z,26.65
2019-02-22T07:12:21.685Z,26.66
2019-02-22T07:14:51.358Z,26.65
2019-02-22T07:17:20.960Z,26.62
2019-02-22T07:19:50.467Z,26.58
2019-02-22T07:22:22.402Z,26.55
2019-02-22T07:24:53.456Z,26.49
2019-02-22T07:27:23.020Z,26.40
2019-02-22T07:29:52.478Z,26.27
2019-02-22T07:32:23.964Z,26.13
2019-02-22T07:34:53.479Z,26.00
2019-02-22T07:37:22.988Z,25.89
2019-02-22T07:39:52.593Z,25.80
2019-02-22T07:42:22.217Z,25.75
2019-02-22T07:44:51.702Z,25.71
2019-02-22T07:47:21.186Z,25.67
2019-02-22T07:49:50.765Z,25.64
2019-02-22T07:52:20.309Z,25.60
2019-02-22T07:54:50.095Z,25.56
2019-02-22T07:57:19.640Z,25.54
2019-02-22T07:59:49.228Z,25.51
2019-02-22T08:02:18.848Z,25.49
2019-02-22T08:04:48.385Z,25.48
2019-02-22T08:07:17.870Z,25.45
2019-02-22T08:09:47.355Z,25.42
2019-02-22T08:12:16.954Z,25.43
2019-02-22T08:14:46.468Z,25.51
2019-02-22T08:17:15.942Z,25.63
2019-02-22T08:19:45.454Z,25.70
2019-02-22T08:22:15.356Z,25.80
2019-02-22T08:24:44.823Z,25.85
2019-02-22T08:27:14.354Z,25.88
2019-02-22T08:29:43.979Z,25.89
2019-02-22T08:32:13.568Z,25.93
2019-02-22T08:34:45.767Z,25.96
2019-02-22T08:37:14.306Z,25.99
2019-02-22T08:39:43.809Z,26.02
2019-02-22T08:42:13.324Z,26.05
2019-02-22T08:44:42.938Z,26.07
2019-02-22T08:47:12.459Z,26.08
2019-02-22T08:49:42.046Z,26.08
2019-02-22T08:52:11.687Z,26.08
2019-02-22T08:54:47.061Z,26.08
2019-02-22T08:57:12.731Z,26.09
2019-02-22T08:59:42.289Z,26.09
2019-02-22T09:02:14.762Z,26.08
2019-02-22T09:04:44.604Z,26.08
2019-02-22T09:07:14.357Z,26.10
2019-02-22T09:09:44.058Z,26.10
2019-02-22T09:12:13.689Z,26.03
2019-02-22T09:14:43.420Z,25.92
2019-02-22T09:17:13.111Z,25.83
2019-02-22T09:19:42.626Z,25.74
2019-02-22T09:22:22.500Z,25.67
2019-02-22T09:24:44.548Z,25.64
2019-02-22T09:27:13.992Z,25.58
2019-02-22T09:29:43.855Z,25.53
2019-02-22T09:32:13.309Z,25.51
2019-02-22T09:34:46.226Z,25.49
2019-02-22T09:37:16.012Z,25.47
2019-02-22T09:39:45.481Z,25.45
2019-02-22T09:42:14.977Z,25.49
2019-02-22T09:44:44.476Z,25.59
2019-02-22T09:47:14.046Z,25.70
2019-02-22T09:49:43.599Z,25.78
2019-02-22T09:52:13.415Z,25.84
2019-02-22T09:54:43.336Z,25.91
2019-02-22T09:57:12.935Z,25.95
2019-02-22T09:59:42.534Z,25.99
2019-02-22T10:02:13.427Z,26.01
2019-02-22T10:04:54.300Z,26.03
2019-02-22T10:07:14.304Z,26.02
2019-02-22T10:09:43.825Z,26.04
2019-02-22T10:12:16.583Z,26.04
2019-02-22T10:14:46.154Z,26.04
2019-02-22T10:17:15.616Z,26.06
2019-02-22T10:19:45.097Z,26.08
2019-02-22T10:22:14.630Z,26.09
2019-02-22T10:24:44.163Z,26.09
2019-02-22T10:27:13.703Z,26.09
2019-02-22T10:29:43.200Z,26.09
2019-02-22T10:32:12.686Z,26.10
2019-02-22T10:34:42.210Z,26.11
2019-02-22T10:37:11.709Z,26.12
2019-02-22T10:39:41.339Z,26.12
2019-02-22T10:42:10.805Z,26.11
2019-02-22T10:44:40.281Z,26.06
2019-02-22T10:47:09.759Z,25.98
2019-02-22T10:49:39.249Z,25.89
2019-02-22T10:52:08.733Z,25.80
2019-02-22T10:54:38.247Z,25.76
2019-02-22T10:57:07.750Z,25.74
2019-02-22T10:59:37.195Z,25.72
2019-02-22T11:02:06.821Z,25.71
2019-02-22T11:04:36.279Z,25.69
2019-02-22T11:07:06.207Z,25.66
2019-02-22T11:09:35.813Z,25.65
2019-02-22T11:12:05.387Z,25.71
2019-02-22T11:14:34.978Z,25.76
2019-02-22T11:17:05.239Z,25.83
2019-02-22T11:19:34.736Z,25.89
2019-02-22T11:22:04.183Z,25.93
2019-02-22T11:24:33.738Z,25.97
2019-02-22T11:27:03.188Z,26.00
2019-02-22T11:29:32.688Z,26.02
2019-02-22T11:32:02.272Z,26.04
2019-02-22T11:34:31.758Z,26.05
2019-02-22T11:37:01.242Z,26.06
2019-02-22T11:39:30.776Z,26.07
2019-02-22T11:42:00.238Z,26.07
2019-02-22T11:44:39.642Z,26.08
2019-02-22T11:47:00.998Z,26.08
2019-02-22T11:49:30.489Z,26.08
2019-02-22T11:52:00.008Z,26.08
2019-02-22T11:54:29.479Z,26.07
2019-02-22T11:56:59.043Z,26.08
2019-02-22T11:59:28.786Z,26.08
2019-02-22T12:01:58.596Z,26.07
2019-02-22T12:04:28.199Z,26.07
2019-02-22T12:06:57.748Z,26.07
2019-02-22T12:09:27.247Z,26.07
2019-02-22T12:11:56.816Z,26.06
2019-02-22T12:14:26.388Z,26.02
2019-02-22T12:16:55.901Z,25.99
2019-02-22T12:19:25.460Z,25.94
2019-02-22T12:21:55.046Z,25.91
2019-02-22T12:24:24.563Z,25.86
2019-02-22T12:26:54.315Z,25.83
2019-02-22T12:29:23.835Z,25.83
2019-02-22T12:31:53.422Z,25.80
2019-02-22T12:34:23.014Z,25.76
2019-02-22T12:36:52.664Z,25.70
2019-02-22T12:39:22.574Z,25.70
2019-02-22T12:41:53.699Z,25.70
2019-02-22T12:44:23.641Z,25.73
2019-02-22T12:46:53.230Z,25.78
2019-02-22T12:49:23.109Z,25.82
2019-02-22T12:51:52.848Z,25.87
2019-02-22T12:54:22.587Z,25.90
2019-02-22T12:56:57.536Z,25.93
2019-02-22T12:59:25.266Z,25.95
2019-02-22T13:01:55.045Z,25.95
2019-02-22T13:04:24.893Z,25.95
2019-02-22T13:06:54.716Z,25.95
2019-02-22T13:09:24.389Z,25.96
2019-02-22T13:11:53.928Z,25.96
2019-02-22T13:14:23.679Z,25.96
2019-02-22T13:16:53.918Z,25.96
2019-02-22T13:19:23.706Z,25.96
2019-02-22T13:21:53.537Z,25.95
2019-02-22T13:24:23.219Z,25.94
2019-02-22T13:26:53.080Z,25.93
2019-02-22T13:29:22.847Z,25.93
2019-02-22T13:31:53.355Z,25.93
2019-02-22T13:34:23.046Z,25.93
2019-02-22T13:36:52.623Z,25.91
2019-02-22T13:39:22.175Z,25.90
2019-02-22T13:41:51.762Z,25.90
2019-02-22T13:44:21.282Z,25.89
2019-02-22T13:46:50.808Z,25.86
2019-02-22T13:49:20.358Z,25.82
2019-02-22T13:51:49.881Z,25.78
2019-02-22T13:54:19.608Z,25.72
2019-02-22T13:56:49.286Z,25.67
2019-02-22T13:59:18.882Z,25.62
2019-02-22T14:01:48.404Z,25.59
2019-02-22T14:04:18.096Z,25.55
2019-02-22T14:06:47.610Z,25.52
2019-02-22T14:09:18.811Z,25.49
2019-02-22T14:11:48.409Z,25.44
2019-02-22T14:14:18.037Z,25.40
2019-02-22T14:16:47.646Z,25.37
2019-02-22T14:19:17.298Z,25.34
2019-02-22T14:21:46.992Z,25.38
2019-02-22T14:24:16.541Z,25.42
2019-02-22T14:26:46.094Z,25.47
2019-02-22T14:29:15.817Z,25.53
2019-02-22T14:31:45.429Z,25.59
2019-02-22T14:34:15.283Z,25.62
2019-02-22T14:36:44.987Z,25.65
2019-02-22T14:39:14.782Z,25.66
2019-02-22T14:41:44.445Z,25.67
2019-02-22T14:44:14.158Z,25.69
2019-02-22T14:46:43.828Z,25.69
2019-02-22T14:49:13.454Z,25.68
2019-02-22T14:51:43.041Z,25.67
2019-02-22T14:54:12.609Z,25.65
2019-02-22T14:56:42.196Z,25.65
2019-02-22T14:59:11.767Z,25.66
2019-02-22T15:01:41.340Z,25.67
2019-02-22T15:04:10.955Z,25.65
2019-02-22T15:06:40.881Z,25.66
2019-02-22T15:09:10.614Z,25.66
2019-02-22T15:11:40.591Z,25.65
2019-02-22T15:14:10.193Z,25.65
2019-02-22T15:16:53.777Z,25.63
2019-02-22T15:19:23.503Z,25.62
2019-02-22T15:21:53.064Z,25.58
2019-02-22T15:24:22.693Z,25.53
2019-02-22T15:26:54.072Z,25.48
2019-02-22T15:29:23.702Z,25.45
2019-02-22T15:31:53.358Z,25.42
2019-02-22T15:34:22.980Z,25.39
2019-02-22T15:36:52.513Z,25.38
2019-02-22T15:39:22.005Z,25.36
2019-02-22T15:41:51.614Z,25.34
2019-02-22T15:44:22.259Z,25.30
2019-02-22T15:46:51.843Z,25.30
2019-02-22T15:49:21.494Z,25.27
2019-02-22T15:51:51.095Z,25.20
2019-02-22T15:54:20.852Z,25.14
2019-02-22T15:56:51.376Z,25.14
2019-02-22T15:59:21.398Z,25.14
2019-02-22T16:01:55.696Z,25.15
2019-02-22T16:04:34.483Z,25.20
2019-02-22T16:07:04.089Z,25.27
2019-02-22T16:09:33.795Z,25.32
2019-02-22T16:12:03.557Z,25.36
2019-02-22T16:14:33.291Z,25.39
2019-02-22T16:17:02.853Z,25.40
2019-02-22T16:19:32.415Z,25.43
2019-02-22T16:22:01.956Z,25.43
2019-02-22T16:24:31.438Z,25.43
2019-02-22T16:27:04.206Z,25.42
2019-02-22T16:29:34.162Z,25.40
2019-02-22T16:32:04.634Z,25.40
2019-02-22T16:34:43.052Z,25.39
2019-02-22T16:37:06.851Z,25.37
2019-02-22T16:39:36.414Z,25.37
2019-02-22T16:42:05.999Z,25.37
2019-02-22T16:44:35.601Z,25.39
2019-02-22T16:47:05.139Z,25.40
2019-02-22T16:49:34.647Z,25.42
2019-02-22T16:52:04.204Z,25.42
2019-02-22T16:54:33.686Z,25.42
2019-02-22T16:57:03.300Z,25.37
2019-02-22T16:59:32.892Z,25.29
2019-02-22T17:02:02.482Z,25.22
2019-02-22T17:04:32.036Z,25.18
2019-02-22T17:07:01.525Z,25.16
2019-02-22T17:09:33.208Z,25.15
2019-02-22T17:12:06.511Z,25.17
2019-02-22T17:14:33.666Z,25.18
2019-02-22T17:17:03.313Z,25.18
2019-02-22T17:19:32.792Z,25.16
2019-02-22T17:22:02.310Z,25.16
2019-02-22T17:24:31.841Z,25.14
2019-02-22T17:27:01.313Z,25.10
2019-02-22T17:29:30.766Z,25.08
2019-02-22T17:32:00.309Z,25.04
2019-02-22T17:34:29.802Z,25.00
2019-02-22T17:36:59.321Z,25.00
2019-02-22T17:39:28.866Z,25.03
2019-02-22T17:41:58.444Z,25.08
2019-02-22T17:44:27.998Z,25.12
2019-02-22T17:46:58.108Z,25.15
2019-02-22T17:49:27.715Z,25.18
2019-02-22T17:51:57.290Z,25.20
2019-02-22T17:54:26.930Z,25.22
2019-02-22T17:56:56.427Z,25.23
2019-02-22T17:59:25.991Z,25.25
2019-02-22T18:01:55.810Z,25.26
2019-02-22T18:04:25.297Z,25.29
2019-02-22T18:06:54.941Z,25.30
2019-02-22T18:09:24.519Z,25.42
2019-02-22T18:11:54.094Z,25.37
2019-02-22T18:14:23.677Z,25.32
2019-02-22T18:16:53.283Z,25.28
2019-02-22T18:19:22.848Z,25.24
2019-02-22T18:21:52.388Z,25.18
2019-02-22T18:24:21.994Z,25.18
2019-02-22T18:26:51.532Z,25.15
2019-02-22T18:29:21.148Z,25.12
2019-02-22T18:31:50.902Z,25.10
2019-02-22T18:34:20.488Z,25.13
2019-02-22T18:36:50.062Z,25.16
2019-02-22T18:39:21.011Z,25.20
2019-02-22T18:41:51.549Z,25.22
2019-02-22T18:44:21.101Z,25.24
2019-02-22T18:46:50.677Z,25.27
2019-02-22T18:49:21.395Z,25.28
2019-02-22T18:51:51.112Z,25.30
2019-02-22T18:54:20.638Z,25.30
2019-02-22T18:56:50.161Z,25.31
2019-02-22T18:59:19.738Z,25.32
2019-02-22T19:01:49.346Z,25.30
2019-02-22T19:04:18.946Z,25.28
2019-02-22T19:06:48.442Z,25.21
2019-02-22T19:09:18.075Z,25.16
2019-02-22T19:11:47.644Z,25.16
2019-02-22T19:14:17.214Z,25.17
2019-02-22T19:16:46.740Z,25.18
2019-02-22T19:19:16.308Z,25.18
2019-02-22T19:21:45.910Z,25.21
2019-02-22T19:24:15.524Z,25.20
2019-02-22T19:26:45.178Z,25.16
2019-02-22T19:29:14.678Z,25.12
2019-02-22T19:31:44.283Z,25.10
2019-02-22T19:34:13.837Z,25.07
2019-02-22T19:36:43.382Z,25.03
2019-02-22T19:39:12.907Z,25.00
2019-02-22T19:41:42.425Z,24.96
2019-02-22T19:44:11.960Z,24.93
2019-02-22T19:46:41.612Z,24.96
2019-02-22T19:49:11.139Z,24.95
2019-02-22T19:51:40.653Z,24.94
2019-02-22T19:54:10.221Z,24.97
2019-02-22T19:56:39.706Z,24.99
2019-02-22T19:59:09.224Z,25.00
2019-02-22T20:01:38.773Z,25.00
2019-02-22T20:04:08.337Z,25.01
2019-02-22T20:06:37.900Z,24.99
2019-02-22T20:09:08.771Z,24.98
2019-02-22T20:11:38.288Z,24.94
2019-02-22T20:14:07.991Z,24.92
2019-02-22T20:16:37.542Z,24.90
2019-02-22T20:19:07.087Z,24.87
2019-02-22T20:21:36.554Z,24.87
2019-02-22T20:24:06.181Z,24.87
2019-02-22T20:26:35.690Z,24.86
2019-02-22T20:29:05.323Z,24.85
2019-02-22T20:31:34.979Z,24.84
2019-02-22T20:34:04.657Z,24.80
2019-02-22T20:36:34.230Z,24.78
2019-02-22T20:39:04.704Z,24.74
2019-02-22T20:41:34.190Z,24.72
2019-02-22T20:44:03.752Z,24.73
2019-02-22T20:46:34.078Z,24.75
2019-02-22T20:49:03.615Z,24.80
2019-02-22T20:51:33.126Z,24.84
2019-02-22T20:54:02.901Z,24.83
2019-02-22T20:56:32.394Z,24.85
2019-02-22T20:59:03.463Z,24.89
2019-02-22T21:01:33.149Z,24.94
2019-02-22T21:04:03.042Z,24.96
2019-02-22T21:06:32.626Z,24.96
2019-02-22T21:09:02.208Z,24.92
2019-02-22T21:11:31.721Z,24.87
2019-02-22T21:14:01.683Z,24.84
2019-02-22T21:16:31.370Z,24.86
2019-02-22T21:19:00.913Z,24.88
2019-02-22T21:21:30.400Z,24.91
2019-02-22T21:23:59.960Z,24.91
2019-02-22T21:26:31.387Z,24.88
2019-02-22T21:29:05.110Z,24.89
2019-02-22T21:31:34.654Z,24.93
2019-02-22T21:34:05.160Z,24.96
2019-02-22T21:36:34.651Z,24.97
2019-02-22T21:39:05.203Z,24.96
2019-02-22T21:41:34.746Z,24.92
2019-02-22T21:44:04.303Z,24.89
2019-02-22T21:46:33.789Z,24.84
2019-02-22T21:49:03.379Z,24.83
2019-02-22T21:51:32.860Z,24.80
2019-02-22T21:54:02.425Z,24.76
2019-02-22T21:56:32.366Z,24.74
2019-02-22T21:59:01.920Z,24.70
2019-02-22T22:01:31.404Z,24.48
2019-02-22T22:04:00.925Z,24.69
2019-02-22T22:06:30.500Z,24.70
2019-02-22T22:08:59.988Z,24.67
2019-02-22T22:11:29.528Z,24.65
2019-02-22T22:13:59.121Z,24.61
2019-02-22T22:16:28.605Z,24.58
2019-02-22T22:18:58.124Z,24.58
2019-02-22T22:21:27.647Z,24.56
2019-02-22T22:23:57.188Z,24.56
2019-02-22T22:26:26.773Z,24.56
2019-02-22T22:28:56.243Z,24.56
2019-02-22T22:31:25.736Z,24.57
2019-02-22T22:33:55.263Z,24.58
2019-02-22T22:36:24.844Z,24.56
2019-02-22T22:38:55.076Z,24.59
2019-02-22T22:41:24.666Z,24.65
2019-02-22T22:43:54.196Z,24.67
2019-02-22T22:46:23.719Z,24.64
2019-02-22T22:48:53.315Z,24.61
2019-02-22T22:51:24.315Z,24.60
2019-02-22T22:53:54.086Z,24.61
2019-02-22T22:56:23.643Z,24.65
2019-02-22T22:58:53.112Z,24.70
2019-02-22T23:01:27.078Z,24.74
2019-02-22T23:03:56.633Z,24.76
2019-02-22T23:06:26.233Z,24.77
2019-02-22T23:08:55.773Z,24.77
2019-02-22T23:11:25.496Z,24.76
2019-02-22T23:13:55.256Z,24.74
2019-02-22T23:16:24.948Z,24.74
2019-02-22T23:19:01.794Z,24.76
2019-02-22T23:21:26.176Z,24.77
2019-02-22T23:23:55.759Z,24.79
2019-02-22T23:26:25.292Z,24.80
2019-02-22T23:28:54.796Z,24.80
2019-02-22T23:31:24.332Z,24.79
2019-02-22T23:33:54.007Z,24.80
2019-02-22T23:36:23.563Z,24.81
2019-02-22T23:38:53.112Z,24.83
2019-02-22T23:41:22.656Z,24.83
2019-02-22T23:43:52.190Z,24.83
2019-02-22T23:46:21.529Z,24.82
2019-02-22T23:48:51.065Z,24.83
2019-02-22T23:51:20.623Z,24.85
2019-02-22T23:53:50.158Z,24.87
2019-02-22T23:56:19.708Z,24.88
2019-02-22T23:58:49.291Z,24.91
